createdAt,value
2023-03-23T00:02:30.042Z,72.29
2023-03-23T00:04:57.338Z,71.99
2023-03-23T00:07:28.843Z,72.56
2023-03-23T00:09:56.830Z,72.60
2023-03-23T00:12:34.800Z,73.24
2023-03-23T00:15:06.922Z,73.05
2023-03-23T00:17:37.117Z,74.63
2023-03-23T00:20:06.522Z,74.45
2023-03-23T00:22:38.719Z,74.40
2023-03-23T00:25:07.254Z,74.44
2023-03-23T00:27:34.092Z,74.86
2023-03-23T00:30:01.428Z,74.90
2023-03-23T00:32:31.140Z,74.87
2023-03-23T00:35:01.923Z,75.20
2023-03-23T00:37:29.052Z,75.25
2023-03-23T00:39:58.703Z,75.49
2023-03-23T00:42:26.364Z,75.52
2023-03-23T00:45:01.302Z,75.48
2023-03-23T00:47:28.728Z,75.34
2023-03-23T00:49:57.536Z,74.64
2023-03-23T00:52:24.923Z,74.94
2023-03-23T00:54:52.009Z,74.24
2023-03-23T00:57:19.421Z,74.90
2023-03-23T00:59:46.566Z,74.31
2023-03-23T01:02:13.438Z,74.35
2023-03-23T01:04:40.710Z,74.21
2023-03-23T01:07:09.515Z,74.63
2023-03-23T01:09:37.533Z,74.17
2023-03-23T01:12:04.627Z,73.14
2023-03-23T01:14:31.411Z,73.32
2023-03-23T01:16:58.312Z,73.95
2023-03-23T01:19:25.158Z,73.71
2023-03-23T01:21:51.914Z,73.84
2023-03-23T01:24:21.752Z,74.22
2023-03-23T01:26:48.918Z,74.73
2023-03-23T01:29:15.880Z,74.87
2023-03-23T01:31:43.963Z,75.89
2023-03-23T01:34:11.697Z,75.14
2023-03-23T01:36:38.635Z,75.31
2023-03-23T01:39:07.041Z,75.94
2023-03-23T01:41:35.673Z,76.46
2023-03-23T01:44:07.506Z,76.73
2023-03-23T01:46:37.847Z,77.01
2023-03-23T01:49:31.367Z,77.28
2023-03-23T01:52:04.002Z,77.51
2023-03-23T01:54:31.331Z,76.76
2023-03-23T01:57:01.253Z,76.73
2023-03-23T01:59:30.343Z,77.26
2023-03-23T02:01:57.523Z,77.43
2023-03-23T02:04:26.502Z,77.77
2023-03-23T02:06:54.265Z,77.15
2023-03-23T02:09:21.163Z,77.59
2023-03-23T02:11:54.714Z,77.70
2023-03-23T02:14:23.028Z,78.11
2023-03-23T02:17:04.218Z,77.94
2023-03-23T02:19:50.170Z,77.69
2023-03-23T02:22:31.167Z,76.55
2023-03-23T02:25:13.075Z,76.67
2023-03-23T02:28:04.005Z,76.42
2023-03-23T02:30:59.827Z,74.83
2023-03-23T02:33:38.296Z,74.52
2023-03-23T02:36:30.041Z,74.36
2023-03-23T02:39:19.049Z,74.38
2023-03-23T02:41:56.357Z,74.32
2023-03-23T02:44:29.153Z,73.57
2023-03-23T02:46:57.597Z,73.26
2023-03-23T02:49:28.568Z,72.84
2023-03-23T02:51:58.693Z,72.71
2023-03-23T02:54:27.295Z,71.82
2023-03-23T02:56:56.121Z,72.66
2023-03-23T02:59:23.816Z,72.34
2023-03-23T03:01:59.706Z,71.84
2023-03-23T03:04:29.855Z,72.45
2023-03-23T03:07:16.575Z,72.52
2023-03-23T03:09:49.149Z,72.41
2023-03-23T03:12:32.195Z,72.90
2023-03-23T03:15:16.901Z,73.35
2023-03-23T03:18:16.125Z,73.63
2023-03-23T03:20:49.334Z,73.91
2023-03-23T03:23:17.624Z,74.12
2023-03-23T03:25:48.671Z,73.89
2023-03-23T03:28:22.532Z,75.21
2023-03-23T03:31:02.681Z,74.33
2023-03-23T03:33:32.117Z,73.88
2023-03-23T03:36:02.373Z,73.99
2023-03-23T03:38:29.557Z,73.91
2023-03-23T03:40:57.391Z,73.84
2023-03-23T03:43:24.496Z,74.03
2023-03-23T03:45:54.186Z,72.35
2023-03-23T03:48:21.123Z,72.79
2023-03-23T03:50:48.332Z,71.90
2023-03-23T03:53:15.308Z,71.47
2023-03-23T03:55:46.579Z,71.56
2023-03-23T03:58:14.108Z,72.35
2023-03-23T04:00:50.660Z,72.58
2023-03-23T04:03:17.707Z,72.33
2023-03-23T04:05:45.803Z,72.92
2023-03-23T04:08:25.568Z,73.83
2023-03-23T04:10:52.809Z,74.04
2023-03-23T04:13:19.958Z,72.97
2023-03-23T04:16:10.119Z,74.59
2023-03-23T04:18:36.143Z,74.49
2023-03-23T04:21:04.523Z,75.35
2023-03-23T04:23:34.817Z,74.74
2023-03-23T04:26:02.638Z,75.38
2023-03-23T04:28:31.188Z,75.86
2023-03-23T04:30:58.658Z,75.40
2023-03-23T04:33:55.749Z,75.21
2023-03-23T04:36:20.228Z,76.52
2023-03-23T04:38:47.064Z,78.07
2023-03-23T04:41:13.933Z,78.81
2023-03-23T04:43:42.970Z,78.44
2023-03-23T04:46:10.917Z,78.98
2023-03-23T04:48:40.268Z,78.19
2023-03-23T04:51:07.328Z,77.65
2023-03-23T04:53:34.748Z,77.51
2023-03-23T04:56:02.931Z,77.32
2023-03-23T04:58:30.411Z,77.96
2023-03-23T05:00:57.414Z,76.71
2023-03-23T05:03:24.346Z,76.78
2023-03-23T05:05:54.613Z,76.83
2023-03-23T05:08:28.225Z,77.00
2023-03-23T05:10:58.141Z,76.76
2023-03-23T05:13:26.026Z,75.94
2023-03-23T05:15:53.184Z,76.61
2023-03-23T05:18:21.572Z,76.95
2023-03-23T05:20:50.022Z,77.37
2023-03-23T05:23:16.933Z,77.43
2023-03-23T05:25:43.912Z,77.74
2023-03-23T05:28:13.286Z,76.58
2023-03-23T05:30:40.762Z,76.73
2023-03-23T05:33:07.726Z,76.88
2023-03-23T05:35:34.922Z,77.67
2023-03-23T05:38:03.318Z,78.65
2023-03-23T05:40:31.313Z,78.57
2023-03-23T05:43:00.117Z,78.85
2023-03-23T05:45:27.552Z,79.49
2023-03-23T05:47:54.298Z,82.07
2023-03-23T05:50:21.207Z,83.02
2023-03-23T05:52:48.345Z,84.54
2023-03-23T05:55:16.447Z,85.41
2023-03-23T05:57:43.385Z,85.53
2023-03-23T06:00:15.515Z,86.01
2023-03-23T06:02:47.251Z,86.36
2023-03-23T06:05:15.309Z,86.87
2023-03-23T06:07:45.660Z,87.04
2023-03-23T06:10:14.768Z,86.58
2023-03-23T06:12:42.686Z,87.73
2023-03-23T06:15:14.193Z,88.24
2023-03-23T06:17:45.754Z,88.76
2023-03-23T06:20:17.310Z,89.44
2023-03-23T06:22:55.514Z,90.73
2023-03-23T06:28:28.034Z,91.84
2023-03-23T06:31:17.957Z,92.62
2023-03-23T06:34:20.496Z,93.58
2023-03-23T06:43:25.448Z,95.13
2023-03-23T06:49:13.565Z,95.68
2023-03-23T07:10:11.682Z,95.63
2023-03-23T07:16:49.534Z,95.52
2023-03-23T07:22:59.922Z,95.28
2023-03-23T07:25:58.482Z,95.36
2023-03-23T07:29:06.933Z,95.95
2023-03-23T07:35:14.182Z,95.44
2023-03-23T07:38:20.924Z,96.44
2023-03-23T07:41:27.498Z,96.63
2023-03-23T07:47:16.216Z,96.15
2023-03-23T07:55:57.895Z,96.75
2023-03-23T08:08:06.279Z,95.55
2023-03-23T08:11:13.181Z,95.68
2023-03-23T08:19:48.908Z,95.20
2023-03-23T08:25:45.660Z,94.61
2023-03-23T08:31:15.430Z,94.34
2023-03-23T08:37:20.198Z,92.66
2023-03-23T08:43:40.700Z,93.23
2023-03-23T08:46:24.825Z,91.46
2023-03-23T08:49:13.357Z,92.05
2023-03-23T08:52:09.258Z,91.47
2023-03-23T08:55:04.093Z,90.95
2023-03-23T09:00:45.989Z,91.27
2023-03-23T09:03:20.653Z,91.08
2023-03-23T09:06:13.426Z,90.55
2023-03-23T09:08:58.537Z,91.08
2023-03-23T09:11:47.261Z,89.41
2023-03-23T09:14:15.857Z,89.75
2023-03-23T09:17:04.462Z,88.42
2023-03-23T09:26:02.593Z,86.83
2023-03-23T09:28:34.794Z,85.03
2023-03-23T09:31:15.626Z,85.25
2023-03-23T09:33:48.010Z,85.09
2023-03-23T09:36:34.023Z,85.90
2023-03-23T09:39:08.963Z,85.61
2023-03-23T09:42:17.157Z,85.09
2023-03-23T09:44:52.591Z,84.61
2023-03-23T09:48:06.074Z,83.93
2023-03-23T09:50:41.241Z,82.39
2023-03-23T09:53:36.252Z,82.50
2023-03-23T09:56:11.433Z,83.06
2023-03-23T09:58:49.562Z,81.82
2023-03-23T10:01:23.235Z,79.74
2023-03-23T10:03:53.411Z,79.52
2023-03-23T10:06:20.459Z,79.97
2023-03-23T10:08:59.377Z,78.36
2023-03-23T10:11:35.610Z,78.60
2023-03-23T10:14:08.629Z,77.07
2023-03-23T10:17:03.005Z,77.35
2023-03-23T10:19:46.839Z,76.91
2023-03-23T10:22:18.504Z,78.03
2023-03-23T10:25:04.715Z,76.61
2023-03-23T10:27:44.854Z,77.10
2023-03-23T10:30:12.172Z,76.04
2023-03-23T10:32:45.379Z,76.83
2023-03-23T10:35:17.693Z,75.95
2023-03-23T10:37:50.537Z,76.02
2023-03-23T10:40:26.904Z,74.88
2023-03-23T10:42:54.382Z,73.03
2023-03-23T10:45:23.841Z,73.77
2023-03-23T10:48:14.826Z,74.86
2023-03-23T10:50:45.108Z,74.33
2023-03-23T10:53:40.989Z,75.55
2023-03-23T10:56:28.512Z,74.61
2023-03-23T10:58:57.313Z,74.25
2023-03-23T11:01:36.337Z,74.81
2023-03-23T11:04:03.560Z,75.62
2023-03-23T11:06:34.970Z,74.99
2023-03-23T11:09:11.653Z,72.95
2023-03-23T11:11:44.749Z,72.86
2023-03-23T11:14:21.024Z,71.57
2023-03-23T11:16:56.350Z,72.63
2023-03-23T11:19:42.414Z,73.11
2023-03-23T11:22:17.409Z,71.08
2023-03-23T11:24:49.454Z,72.46
2023-03-23T11:27:16.955Z,71.43
2023-03-23T11:29:58.452Z,70.85
2023-03-23T11:32:29.107Z,70.78
2023-03-23T11:35:18.974Z,70.36
2023-03-23T11:37:58.808Z,69.68
2023-03-23T11:40:29.187Z,69.85
2023-03-23T11:43:09.988Z,70.92
2023-03-23T11:45:41.492Z,69.71
2023-03-23T11:48:27.970Z,68.46
2023-03-23T11:51:12.516Z,69.56
2023-03-23T11:53:51.113Z,68.76
2023-03-23T11:56:45.262Z,67.88
2023-03-23T11:59:34.655Z,67.37
2023-03-23T12:02:21.796Z,68.30
2023-03-23T12:05:21.177Z,68.26
2023-03-23T12:08:31.976Z,66.69
2023-03-23T12:11:26.543Z,66.29
2023-03-23T12:14:30.104Z,65.43
2023-03-23T12:17:18.965Z,65.09
2023-03-23T12:20:21.276Z,66.44
2023-03-23T12:23:05.700Z,63.33
2023-03-23T12:26:17.401Z,64.07
2023-03-23T12:29:18.256Z,63.75
2023-03-23T12:31:58.457Z,62.65
2023-03-23T12:34:43.375Z,63.71
2023-03-23T12:37:34.850Z,63.73
2023-03-23T12:40:39.582Z,63.81
2023-03-23T12:43:19.464Z,64.29
2023-03-23T12:45:52.060Z,62.82
2023-03-23T12:48:27.554Z,63.40
2023-03-23T12:51:26.081Z,63.03
2023-03-23T12:53:57.032Z,63.00
2023-03-23T12:56:34.725Z,63.21
2023-03-23T12:59:11.502Z,62.50
2023-03-23T13:01:44.817Z,62.83
2023-03-23T13:04:25.110Z,62.51
2023-03-23T13:06:52.795Z,63.53
2023-03-23T13:09:34.157Z,61.62
2023-03-23T13:12:06.757Z,61.79
2023-03-23T13:15:20.418Z,60.69
2023-03-23T13:18:05.734Z,58.62
2023-03-23T13:20:56.873Z,56.98
2023-03-23T13:23:29.193Z,57.17
2023-03-23T13:26:04.721Z,55.85
2023-03-23T13:28:50.610Z,55.72
2023-03-23T13:31:26.534Z,55.59
2023-03-23T13:33:58.757Z,55.32
2023-03-23T13:36:34.056Z,55.42
2023-03-23T13:39:04.042Z,54.69
2023-03-23T13:41:32.105Z,57.41
2023-03-23T13:44:26.485Z,57.45
2023-03-23T13:47:09.992Z,57.52
2023-03-23T13:49:50.602Z,56.63
2023-03-23T13:52:38.415Z,57.71
2023-03-23T13:55:29.962Z,55.99
2023-03-23T13:58:02.783Z,55.67
2023-03-23T14:00:35.633Z,56.77
2023-03-23T14:03:11.884Z,57.06
2023-03-23T14:05:46.520Z,57.30
2023-03-23T14:08:38.547Z,57.04
2023-03-23T14:11:13.396Z,57.30
2023-03-23T14:14:01.239Z,58.16
2023-03-23T14:16:36.874Z,56.21
2023-03-23T14:19:14.253Z,54.36
2023-03-23T14:21:43.850Z,55.47
2023-03-23T14:24:14.052Z,55.98
2023-03-23T14:26:41.116Z,55.23
2023-03-23T14:29:08.621Z,55.35
2023-03-23T14:31:37.430Z,55.10
2023-03-23T14:34:12.446Z,56.21
2023-03-23T14:36:41.227Z,58.21
2023-03-23T14:39:08.243Z,56.82
2023-03-23T14:41:37.417Z,58.86
2023-03-23T14:44:07.912Z,59.91
2023-03-23T14:46:35.767Z,59.64
2023-03-23T14:49:07.285Z,59.16
2023-03-23T14:51:34.105Z,59.63
2023-03-23T14:54:04.263Z,59.02
2023-03-23T14:56:38.294Z,60.52
2023-03-23T14:59:10.780Z,61.13
2023-03-23T15:01:39.559Z,59.66
2023-03-23T15:04:16.362Z,59.92
2023-03-23T15:06:48.070Z,60.18
2023-03-23T15:09:21.456Z,60.49
2023-03-23T15:11:59.106Z,60.36
2023-03-23T15:14:34.244Z,59.70
2023-03-23T15:17:02.067Z,58.93
2023-03-23T15:19:34.630Z,58.99
2023-03-23T15:22:25.167Z,59.80
2023-03-23T15:24:54.415Z,59.79
2023-03-23T15:27:40.700Z,60.43
2023-03-23T15:30:25.940Z,61.17
2023-03-23T15:32:55.431Z,60.72
2023-03-23T15:35:26.040Z,60.72
2023-03-23T15:38:03.512Z,60.73
2023-03-23T15:40:35.597Z,57.24
2023-03-23T15:43:35.849Z,56.46
2023-03-23T15:46:23.282Z,55.16
2023-03-23T15:49:07.328Z,54.92
2023-03-23T15:51:34.329Z,55.19
2023-03-23T15:54:05.734Z,53.90
2023-03-23T15:56:36.017Z,54.38
2023-03-23T15:59:02.974Z,54.59
2023-03-23T16:01:31.663Z,55.08
2023-03-23T16:04:05.411Z,53.54
2023-03-23T16:06:34.590Z,53.53
2023-03-23T16:09:02.216Z,52.20
2023-03-23T16:11:32.137Z,52.93
2023-03-23T16:14:00.056Z,54.36
2023-03-23T16:16:35.672Z,56.32
2023-03-23T16:19:03.366Z,56.56
2023-03-23T16:21:30.120Z,57.67
2023-03-23T16:23:57.925Z,57.65
2023-03-23T16:26:24.956Z,59.27
2023-03-23T16:28:55.317Z,58.46
2023-03-23T16:31:26.849Z,58.47
2023-03-23T16:33:53.788Z,59.30
2023-03-23T16:36:20.633Z,59.88
2023-03-23T16:38:49.028Z,59.29
2023-03-23T16:41:17.674Z,60.53
2023-03-23T16:43:44.550Z,59.45
2023-03-23T16:46:13.590Z,60.62
2023-03-23T16:48:40.883Z,60.98
2023-03-23T16:51:08.142Z,60.91
2023-03-23T16:53:36.241Z,62.28
2023-03-23T16:56:03.996Z,61.83
2023-03-23T16:58:30.891Z,62.89
2023-03-23T17:00:57.798Z,63.25
2023-03-23T17:03:24.780Z,62.68
2023-03-23T17:05:52.615Z,62.97
2023-03-23T17:08:20.459Z,63.67
2023-03-23T17:10:47.932Z,63.43
2023-03-23T17:13:14.851Z,64.22
2023-03-23T17:15:45.286Z,63.88
2023-03-23T17:18:13.938Z,63.41
2023-03-23T17:20:41.037Z,63.90
2023-03-23T17:23:07.984Z,63.79
2023-03-23T17:25:35.130Z,63.87
2023-03-23T17:28:05.960Z,64.38
2023-03-23T17:30:34.006Z,64.05
2023-03-23T17:33:00.895Z,64.26
2023-03-23T17:35:27.962Z,64.35
2023-03-23T17:37:54.731Z,64.48
2023-03-23T17:40:21.728Z,64.77
2023-03-23T17:42:48.526Z,64.66
2023-03-23T17:45:15.845Z,64.69
2023-03-23T17:47:42.857Z,64.57
2023-03-23T17:50:12.301Z,64.54
2023-03-23T17:52:40.598Z,65.11
2023-03-23T17:55:08.586Z,64.97
2023-03-23T17:57:36.381Z,65.78
2023-03-23T18:00:07.601Z,70.53
2023-03-23T18:02:35.977Z,71.47
2023-03-23T18:05:02.834Z,70.83
2023-03-23T18:07:29.639Z,73.88
2023-03-23T18:10:00.956Z,73.98
2023-03-23T18:12:28.116Z,74.07
2023-03-23T18:14:59.104Z,74.63
2023-03-23T18:17:26.723Z,74.42
2023-03-23T18:19:53.933Z,73.85
2023-03-23T18:22:20.937Z,74.84
2023-03-23T18:24:47.797Z,75.21
2023-03-23T18:27:15.443Z,75.20
2023-03-23T18:29:42.650Z,76.03
2023-03-23T18:32:09.707Z,76.64
2023-03-23T18:34:38.151Z,76.17
2023-03-23T18:37:05.132Z,76.15
2023-03-23T18:39:34.316Z,76.88
2023-03-23T18:42:01.993Z,77.32
2023-03-23T18:44:32.030Z,78.34
2023-03-23T18:46:59.113Z,78.72
2023-03-23T18:49:26.465Z,79.55
2023-03-23T18:51:53.207Z,78.18
2023-03-23T18:54:20.134Z,78.67
2023-03-23T18:56:47.095Z,78.58
2023-03-23T18:59:14.050Z,79.70
2023-03-23T19:01:41.279Z,80.66
2023-03-23T19:04:08.240Z,80.45
2023-03-23T19:06:35.293Z,81.23
2023-03-23T19:09:03.025Z,82.49
2023-03-23T19:11:30.345Z,83.04
2023-03-23T19:16:27.231Z,82.43
2023-03-23T19:18:54.123Z,82.59
2023-03-23T19:21:25.242Z,82.39
2023-03-23T19:23:54.685Z,84.18
2023-03-23T19:26:37.976Z,83.70
2023-03-23T19:31:37.889Z,83.56
2023-03-23T19:34:04.860Z,84.01
2023-03-23T19:36:32.859Z,83.94
2023-03-23T19:39:02.912Z,84.71
2023-03-23T19:41:30.099Z,85.19
2023-03-23T19:43:57.348Z,85.13
2023-03-23T19:46:26.025Z,84.55
2023-03-23T19:48:54.565Z,84.47
2023-03-23T19:51:22.643Z,84.40
2023-03-23T19:53:50.299Z,84.13
2023-03-23T19:56:24.635Z,84.20
2023-03-23T19:58:52.181Z,84.03
2023-03-23T20:01:19.661Z,84.28
2023-03-23T20:03:46.821Z,84.60
2023-03-23T20:06:15.559Z,84.30
2023-03-23T20:08:47.897Z,84.12
2023-03-23T20:11:19.345Z,84.46
2023-03-23T20:13:48.664Z,84.79
2023-03-23T20:16:17.664Z,84.86
2023-03-23T20:18:46.566Z,84.57
2023-03-23T20:21:19.696Z,85.10
2023-03-23T20:23:48.209Z,85.14
2023-03-23T20:26:20.936Z,84.92
2023-03-23T20:28:48.204Z,84.91
2023-03-23T20:31:23.090Z,85.30
2023-03-23T20:34:00.051Z,85.31
2023-03-23T20:36:35.297Z,85.20
2023-03-23T20:39:05.819Z,85.57
2023-03-23T20:41:36.480Z,85.61
2023-03-23T20:44:04.779Z,85.46
2023-03-23T20:46:32.238Z,85.54
2023-03-23T20:48:59.537Z,85.78
2023-03-23T20:51:26.446Z,85.75
2023-03-23T20:53:53.559Z,85.50
2023-03-23T20:56:21.352Z,85.67
2023-03-23T20:58:48.243Z,85.93
2023-03-23T21:01:15.546Z,85.93
2023-03-23T21:03:42.539Z,85.46
2023-03-23T21:06:10.981Z,85.52
2023-03-23T21:08:39.554Z,85.43
2023-03-23T21:11:09.585Z,85.83
2023-03-23T21:13:37.265Z,86.33
2023-03-23T21:16:05.358Z,86.33
2023-03-23T21:18:32.765Z,86.02
2023-03-23T21:21:00.575Z,86.37
2023-03-23T21:23:29.905Z,86.74
2023-03-23T21:26:03.018Z,86.74
2023-03-23T21:28:30.421Z,86.84
2023-03-23T21:31:01.322Z,86.24
2023-03-23T21:33:28.676Z,86.27
2023-03-23T21:35:55.891Z,86.78
2023-03-23T21:38:26.413Z,86.62
2023-03-23T21:40:54.620Z,86.78
2023-03-23T21:43:27.787Z,87.77
2023-03-23T21:45:56.898Z,86.90
2023-03-23T21:48:26.080Z,87.46
2023-03-23T21:50:53.614Z,87.72
2023-03-23T21:53:21.678Z,88.15
2023-03-23T21:55:54.813Z,88.45
2023-03-23T21:58:26.213Z,89.43
2023-03-23T22:00:55.181Z,89.51
2023-03-23T22:03:24.547Z,88.97
2023-03-23T22:05:55.069Z,89.66
2023-03-23T22:08:23.390Z,89.83
2023-03-23T22:11:01.345Z,89.85
2023-03-23T22:13:30.653Z,90.13
2023-03-23T22:15:59.481Z,90.72
2023-03-23T22:18:26.722Z,91.60
2023-03-23T22:20:54.130Z,91.43
2023-03-23T22:23:21.190Z,92.58
2023-03-23T22:25:48.131Z,92.23
2023-03-23T22:28:15.092Z,91.61
2023-03-23T22:30:41.904Z,91.88
2023-03-23T22:33:08.739Z,92.35
2023-03-23T22:35:35.655Z,91.97
2023-03-23T22:38:05.450Z,92.03
2023-03-23T22:40:32.286Z,92.34
2023-03-23T22:42:59.292Z,92.46
2023-03-23T22:45:27.522Z,92.77
2023-03-23T22:47:54.754Z,92.52
2023-03-23T22:50:24.291Z,92.49
2023-03-23T22:52:51.109Z,92.68
2023-03-23T22:55:18.385Z,92.78
2023-03-23T22:57:46.053Z,92.62
2023-03-23T23:00:18.121Z,93.14
2023-03-23T23:02:45.924Z,93.39
2023-03-23T23:05:13.996Z,93.52
2023-03-23T23:07:41.306Z,93.52
2023-03-23T23:10:08.440Z,93.46
2023-03-23T23:12:35.459Z,93.54
2023-03-23T23:15:04.889Z,93.63
2023-03-23T23:17:32.165Z,93.37
2023-03-23T23:20:00.100Z,93.92
2023-03-23T23:22:27.765Z,93.62
2023-03-23T23:24:54.770Z,93.99
2023-03-23T23:27:22.001Z,93.84
2023-03-23T23:29:51.352Z,94.13
2023-03-23T23:32:18.283Z,94.29
2023-03-23T23:34:45.221Z,94.00
2023-03-23T23:37:12.115Z,94.30
2023-03-23T23:39:41.466Z,94.34
2023-03-23T23:42:08.350Z,94.37
2023-03-23T23:44:35.441Z,94.13
2023-03-23T23:47:02.723Z,94.29
2023-03-23T23:49:29.898Z,94.42
2023-03-23T23:51:57.103Z,93.94
2023-03-23T23:54:30.169Z,94.25
2023-03-23T23:56:58.420Z,94.37
2023-03-23T23:59:26.164Z,94.31
